Time;durP1;ratioP1;P1;durP2;ratioP2;P2;SDS_P1;SDS_P2;PMS_P1;PMS_P2;Temp;Humidity;BMP_temperature;BMP_pressure;BME280_temperature;BME280_humidity;BME280_pressure;Samples;Min_cycle;Max_cycle;Signal;HPM_P1;HPM_P2
2022/04/12 00:00:59;;;;;;;9.45;4.60;;;;;;;9.29;81.99;100803.41;4972436;28;20073;-77
2022/04/12 00:03:25;;;;;;;9.73;5.15;;;;;;;9.26;82.86;100805.50;4977461;28;20062;-77
2022/04/12 00:05:51;;;;;;;12.15;4.60;;;;;;;9.17;83.79;100794.28;4981544;28;20482;-78
2022/04/12 00:08:17;;;;;;;12.52;4.93;;;;;;;9.21;83.24;100797.66;4983477;28;20107;-77
2022/04/12 00:10:43;;;;;;;10.50;4.40;;;;;;;9.25;82.32;100795.56;4995960;28;20083;-78
2022/04/12 00:13:09;;;;;;;6.57;4.20;;;;;;;9.19;81.97;100788.72;4987060;28;20496;-78
2022/04/12 00:15:35;;;;;;;12.00;4.47;;;;;;;9.26;81.88;100791.84;4992092;28;20072;-77
2022/04/12 00:20:44;;;;;;;11.07;4.70;;;;;;;9.16;83.62;100786.19;4999005;28;20061;-78
2022/04/12 00:23:12;;;;;;;10.70;4.93;;;;;;;9.10;85.05;100770.25;4961617;28;20122;-78
2022/04/12 00:25:37;;;;;;;12.77;4.28;;;;;;;9.11;84.11;100770.16;4978843;28;20072;-77
2022/04/12 00:28:03;;;;;;;8.45;4.13;;;;;;;9.14;84.29;100766.34;4976539;28;20502;-77
2022/04/12 00:30:29;;;;;;;11.13;5.07;;;;;;;9.12;85.34;100760.13;4985288;28;20039;-79
2022/04/12 00:32:54;;;;;;;9.48;4.68;;;;;;;9.10;85.48;100768.41;4971802;28;20018;-78
2022/04/12 00:35:21;;;;;;;12.55;4.65;;;;;;;9.06;85.80;100766.03;4961429;28;20053;-78
2022/04/12 00:37:47;;;;;;;10.65;4.75;;;;;;;8.99;86.21;100757.41;4983330;28;20066;-78
2022/04/12 00:40:17;;;;;;;11.48;4.68;;;;;;;9.01;87.03;100778.16;4999665;28;20039;-77
2022/04/12 00:42:44;;;;;;;10.07;4.93;;;;;;;8.97;87.38;100768.47;4977112;28;20471;-77
2022/04/12 00:45:10;;;;;;;11.88;4.97;;;;;;;9.03;85.18;100758.91;4982665;28;20038;-78
2022/04/12 00:47:35;;;;;;;9.30;4.68;;;;;;;9.04;84.79;100757.94;4995934;28;20198;-78
2022/04/12 00:50:01;;;;;;;8.43;4.60;;;;;;;9.08;84.48;100759.44;4976467;28;20030;-78
2022/04/12 00:52:28;;;;;;;10.25;5.30;;;;;;;9.05;84.72;100762.44;4993482;28;20085;-77
2022/04/12 00:54:54;;;;;;;10.70;4.43;;;;;;;9.01;85.51;100761.75;4962117;28;20482;-78
2022/04/12 00:57:20;;;;;;;14.73;5.45;;;;;;;9.00;86.17;100754.56;4963874;28;20402;-77
2022/04/12 00:59:46;;;;;;;12.13;5.82;;;;;;;8.98;86.03;100753.78;4991576;28;20026;-78
2022/04/12 01:02:12;;;;;;;9.82;5.00;;;;;;;8.95;86.41;100748.59;4973543;28;20038;-78
2022/04/12 01:04:37;;;;;;;10.57;5.43;;;;;;;8.92;87.12;100739.72;4978784;28;20041;-77
2022/04/12 01:07:04;;;;;;;14.48;4.80;;;;;;;8.91;87.54;100736.13;4979206;28;20027;-77
2022/04/12 01:09:30;;;;;;;11.48;5.22;;;;;;;8.90;86.73;100737.09;4975304;28;20050;-78
2022/04/12 01:11:57;;;;;;;11.95;4.65;;;;;;;8.87;87.75;100733.75;4986928;28;20022;-78
2022/04/12 01:14:25;;;;;;;12.45;5.60;;;;;;;8.89;87.56;100740.84;4998136;28;20343;-78
2022/04/12 01:16:51;;;;;;;8.82;4.97;;;;;;;8.89;87.69;100742.72;4977902;28;20043;-78
2022/04/12 01:19:18;;;;;;;10.00;5.00;;;;;;;8.86;88.03;100751.13;4959369;28;20039;-78
2022/04/12 01:21:50;;;;;;;14.55;5.05;;;;;;;8.89;87.08;100748.19;4983202;28;20085;-78
2022/04/12 01:24:16;;;;;;;15.17;5.53;;;;;;;8.87;87.78;100751.03;4966238;28;20495;-78
2022/04/12 01:26:43;;;;;;;15.50;5.15;;;;;;;8.87;87.07;100737.38;4987837;28;20031;-77
2022/04/12 01:29:08;;;;;;;9.90;5.88;;;;;;;8.84;87.61;100734.84;4953371;28;20116;-77
2022/04/12 01:31:33;;;;;;;9.75;4.97;;;;;;;8.81;87.76;100733.22;4977495;28;20495;-78
2022/04/12 01:33:59;;;;;;;14.30;6.32;;;;;;;8.82;88.48;100734.06;4994615;28;20082;-78
2022/04/12 01:36:24;;;;;;;15.38;5.40;;;;;;;8.80;88.26;100731.47;4982278;28;20140;-78
2022/04/12 01:38:50;;;;;;;19.58;6.13;;;;;;;8.79;88.86;100737.94;4966385;28;20375;-78
2022/04/12 01:41:15;;;;;;;15.15;6.25;;;;;;;8.76;88.82;100734.56;4952056;28;20078;-78
2022/04/12 01:43:41;;;;;;;10.45;5.47;;;;;;;8.78;88.95;100751.69;4981371;28;20477;-77
2022/04/12 01:46:07;;;;;;;13.82;5.90;;;;;;;8.76;89.10;100749.06;4970166;28;20120;-77
2022/04/12 01:48:32;;;;;;;15.68;6.07;;;;;;;8.73;89.44;100732.91;4971776;28;20034;-76
2022/04/12 01:50:58;;;;;;;14.05;5.72;;;;;;;8.62;90.44;100736.44;4959540;28;20034;-77
2022/04/12 01:53:23;;;;;;;17.60;6.38;;;;;;;8.68;90.63;100737.84;4966091;28;20043;-77
2022/04/12 01:55:49;;;;;;;13.27;6.07;;;;;;;8.67;90.57;100743.41;4993834;28;20081;-77
2022/04/12 01:58:14;;;;;;;16.40;6.43;;;;;;;8.64;90.95;100747.22;4990621;28;20030;-77
2022/04/12 02:00:42;;;;;;;12.90;5.72;;;;;;;8.60;90.63;100741.13;4962193;28;20030;-77
2022/04/12 02:03:09;;;;;;;17.40;8.45;;;;;;;8.62;90.08;100744.63;4979091;28;20392;-77
2022/04/12 02:05:35;;;;;;;15.13;6.15;;;;;;;8.62;90.36;100751.91;4979336;28;20084;-77
2022/04/12 02:08:00;;;;;;;20.58;6.18;;;;;;;8.54;90.48;100727.91;4985758;28;20645;-77
2022/04/12 02:10:26;;;;;;;14.82;6.47;;;;;;;8.55;90.47;100734.25;4976584;28;20042;-77
2022/04/12 02:12:52;;;;;;;16.48;6.03;;;;;;;8.55;89.97;100731.53;4978498;28;20041;-77
2022/04/12 02:15:17;;;;;;;14.60;6.20;;;;;;;8.52;90.19;100732.63;4984726;28;20038;-77
2022/04/12 02:17:43;;;;;;;13.73;6.00;;;;;;;8.49;90.03;100726.50;4994581;28;20082;-77
2022/04/12 02:20:09;;;;;;;13.95;6.47;;;;;;;8.49;90.61;100729.25;4988340;28;20116;-77
2022/04/12 02:22:35;;;;;;;16.88;6.63;;;;;;;8.48;90.50;100731.09;4973729;28;20035;-77
2022/04/12 02:25:01;;;;;;;18.65;7.13;;;;;;;8.46;90.02;100728.50;4959656;28;20461;-77
2022/04/12 02:27:27;;;;;;;13.82;6.85;;;;;;;8.44;90.91;100735.03;4987499;28;20034;-77
2022/04/12 02:29:52;;;;;;;17.63;6.65;;;;;;;8.44;90.55;100735.03;4967071;28;20070;-77
2022/04/12 02:32:18;;;;;;;13.27;6.30;;;;;;;8.45;90.30;100737.66;4976507;28;20371;-77
2022/04/12 02:34:43;;;;;;;17.83;8.63;;;;;;;8.41;90.71;100733.38;4977356;28;20042;-77
2022/04/12 02:37:09;;;;;;;18.67;7.35;;;;;;;8.40;92.23;100736.22;4962562;28;20393;-77
2022/04/12 02:39:34;;;;;;;14.13;7.38;;;;;;;8.36;91.22;100716.47;4984799;28;20043;-77
2022/04/12 02:42:00;;;;;;;15.15;6.93;;;;;;;8.40;91.38;100717.13;4970072;28;20357;-77
2022/04/12 02:44:25;;;;;;;11.57;5.97;;;;;;;8.38;91.47;100713.59;4955035;28;20110;-79
2022/04/12 02:46:51;;;;;;;18.63;7.20;;;;;;;8.34;91.55;100707.50;4964343;28;20046;-78
2022/04/12 02:49:16;;;;;;;14.57;7.05;;;;;;;8.33;91.71;100721.25;4974107;28;20594;-77
2022/04/12 02:51:41;;;;;;;17.35;7.25;;;;;;;8.27;92.78;100723.44;4954024;28;20127;-78
2022/04/12 02:54:07;;;;;;;14.25;7.18;;;;;;;8.24;92.21;100718.19;4969665;28;20054;-77
2022/04/12 02:56:33;;;;;;;16.92;7.05;;;;;;;8.20;93.26;100722.16;4963922;28;20026;-77
2022/04/12 02:58:58;;;;;;;13.90;7.03;;;;;;;8.21;93.21;100701.19;4972831;28;20034;-77
2022/04/12 03:01:23;;;;;;;14.95;7.35;;;;;;;8.18;93.28;100712.31;4959764;28;20051;-77
2022/04/12 03:03:49;;;;;;;17.00;7.40;;;;;;;8.12;94.37;100700.00;4947991;28;20027;-77
2022/04/12 03:06:14;;;;;;;18.15;7.82;;;;;;;8.02;95.04;100704.38;4959081;28;20443;-77
2022/04/12 03:08:40;;;;;;;18.08;7.10;;;;;;;7.98;95.34;100694.66;4964533;28;20034;-79
2022/04/12 03:11:05;;;;;;;21.52;7.95;;;;;;;8.02;95.06;100693.47;4973146;28;20030;-77
2022/04/12 03:13:31;;;;;;;18.33;8.30;;;;;;;8.01;94.73;100683.53;4972095;28;20038;-78
2022/04/12 03:15:56;;;;;;;17.85;8.02;;;;;;;7.98;95.06;100676.44;4967056;28;20502;-78
2022/04/12 03:18:22;;;;;;;17.85;7.15;;;;;;;7.97;95.53;100682.00;4975851;28;20035;-77
2022/04/12 03:20:51;;;;;;;25.38;8.00;;;;;;;7.95;95.96;100694.88;4959380;28;20042;-78
2022/04/12 03:23:17;;;;;;;19.90;7.95;;;;;;;7.93;97.10;100702.28;4957083;28;20109;-77
2022/04/12 03:25:42;;;;;;;19.27;7.95;;;;;;;7.85;96.74;100687.34;4951015;28;20518;-76
2022/04/12 03:28:08;;;;;;;22.95;7.43;;;;;;;7.88;96.75;100680.81;4970096;28;20039;-77
2022/04/12 03:30:33;;;;;;;17.55;7.80;;;;;;;7.86;96.72;100682.78;4962995;28;20059;-77
2022/04/12 03:32:59;;;;;;;23.17;9.45;;;;;;;7.80;97.08;100686.78;4978007;28;20110;-77
2022/04/12 03:35:25;;;;;;;17.75;8.80;;;;;;;7.81;96.58;100677.66;4965220;28;20027;-77
2022/04/12 03:37:50;;;;;;;19.67;8.20;;;;;;;7.84;96.45;100677.44;4972946;28;20031;-77
2022/04/12 03:40:16;;;;;;;20.40;8.63;;;;;;;7.89;96.34;100664.34;4969062;28;20525;-77
2022/04/12 03:42:41;;;;;;;16.88;8.13;;;;;;;7.86;97.01;100661.84;4968749;28;20039;-77
2022/04/12 03:45:07;;;;;;;23.95;8.93;;;;;;;7.85;96.75;100651.03;4961755;28;20504;-78
2022/04/12 03:47:32;;;;;;;18.25;8.02;;;;;;;7.82;97.06;100649.41;4985102;28;20034;-77
2022/04/12 03:49:57;;;;;;;16.33;7.85;;;;;;;7.82;97.34;100646.69;4968927;28;20038;-77
2022/04/12 03:52:23;;;;;;;17.80;8.63;;;;;;;7.84;97.17;100657.50;4965179;28;20081;-77
2022/04/12 03:54:48;;;;;;;19.83;8.18;;;;;;;7.82;98.08;100665.78;4963852;28;20376;-77
2022/04/12 03:57:14;;;;;;;16.77;8.52;;;;;;;7.72;98.88;100673.72;4968097;28;20051;-78
2022/04/12 03:59:39;;;;;;;24.35;9.65;;;;;;;7.72;98.94;100670.09;4966192;28;20030;-77
2022/04/12 04:02:05;;;;;;;19.45;8.93;;;;;;;7.66;98.88;100668.69;4992031;28;20045;-78
2022/04/12 04:04:31;;;;;;;21.85;9.23;;;;;;;7.65;99.13;100666.94;4990054;28;20262;-77
2022/04/12 04:06:56;;;;;;;19.75;8.52;;;;;;;7.60;98.73;100668.25;4979483;28;20451;-77
2022/04/12 04:09:21;;;;;;;23.52;10.25;;;;;;;7.50;99.37;100660.72;4996483;28;20375;-76
2022/04/12 04:11:48;;;;;;;23.70;9.80;;;;;;;7.44;99.78;100654.81;4983722;28;20086;-77
2022/04/12 04:14:15;;;;;;;22.85;9.10;;;;;;;7.49;100.00;100660.81;4978530;28;20027;-76
2022/04/12 04:16:42;;;;;;;23.85;9.15;;;;;;;7.33;100.00;100672.78;4963785;28;20039;-77
2022/04/12 04:19:09;;;;;;;20.45;9.38;;;;;;;7.34;100.00;100682.69;4995515;28;20041;-77
2022/04/12 04:21:37;;;;;;;21.92;9.05;;;;;;;7.36;100.00;100677.13;4978704;28;20701;-77
2022/04/12 04:24:03;;;;;;;26.20;9.48;;;;;;;7.42;100.00;100659.50;4994761;28;20033;-77
2022/04/12 04:26:29;;;;;;;21.02;9.23;;;;;;;7.42;100.00;100652.19;4977037;28;20398;-77
2022/04/12 04:28:54;;;;;;;29.92;10.38;;;;;;;7.46;100.00;100659.19;4980758;28;20027;-77
2022/04/12 04:31:20;;;;;;;27.90;10.15;;;;;;;7.44;100.00;100660.25;4986936;28;20042;-77
2022/04/12 04:33:46;;;;;;;25.92;9.15;;;;;;;7.48;100.00;100675.44;4975332;28;20037;-77
2022/04/12 04:36:12;;;;;;;19.38;9.73;;;;;;;7.43;100.00;100672.13;4997134;28;20038;-79
2022/04/12 04:38:37;;;;;;;24.90;10.15;;;;;;;7.41;100.00;100672.25;4982315;28;20043;-79
2022/04/12 04:41:03;;;;;;;24.27;10.40;;;;;;;7.35;100.00;100664.50;4969553;28;20046;-77
2022/04/12 04:43:28;;;;;;;29.67;11.45;;;;;;;7.33;100.00;100656.44;4986253;28;20043;-79
2022/04/12 04:45:53;;;;;;;27.25;10.95;;;;;;;7.34;100.00;100660.03;4966875;28;20393;-78
2022/04/12 04:48:19;;;;;;;23.35;11.15;;;;;;;7.31;100.00;100657.50;4970370;28;20046;-78
2022/04/12 04:50:44;;;;;;;26.75;10.75;;;;;;;7.30;100.00;100666.69;4981866;28;20072;-78
2022/04/12 04:53:10;;;;;;;34.70;10.85;;;;;;;7.27;100.00;100662.31;4976395;28;20046;-77
2022/04/12 04:55:37;;;;;;;29.90;11.43;;;;;;;7.18;100.00;100666.53;4981962;28;20411;-77
2022/04/12 04:58:04;;;;;;;31.83;10.88;;;;;;;7.10;100.00;100676.19;4989582;28;20042;-78
2022/04/12 05:00:34;;;;;;;26.63;11.23;;;;;;;7.13;100.00;100678.69;4991818;28;20074;-78
2022/04/12 05:03:01;;;;;;;32.55;11.38;;;;;;;7.11;100.00;100681.53;4974614;28;20022;-78
2022/04/12 05:05:28;;;;;;;27.10;11.48;;;;;;;7.18;100.00;100679.25;4977214;28;20092;-78
2022/04/12 05:07:56;;;;;;;26.65;10.70;;;;;;;7.22;100.00;100675.38;4991588;28;20105;-79
2022/04/12 05:10:29;;;;;;;27.63;11.52;;;;;;;7.13;100.00;100682.31;4974083;28;20038;-78
2022/04/12 05:12:56;;;;;;;24.02;10.48;;;;;;;7.11;100.00;100675.22;4976152;28;20061;-78
2022/04/12 05:15:22;;;;;;;32.42;11.40;;;;;;;7.18;100.00;100674.72;4987668;28;20393;-77
2022/04/12 05:17:52;;;;;;;29.90;12.98;;;;;;;7.26;100.00;100678.75;4985949;28;20118;-78
2022/04/12 05:20:19;;;;;;;29.63;13.48;;;;;;;7.13;100.00;100681.41;4956649;28;20395;-78
2022/04/12 05:22:45;;;;;;;40.63;13.10;;;;;;;7.01;100.00;100683.13;4956174;28;20045;-77
2022/04/12 05:25:11;;;;;;;40.10;12.77;;;;;;;7.07;100.00;100690.03;4966197;28;20095;-78
2022/04/12 05:27:37;;;;;;;37.38;13.38;;;;;;;7.24;100.00;100684.28;4969231;28;20071;-78
2022/04/12 05:30:07;;;;;;;29.48;14.20;;;;;;;7.28;100.00;100693.13;4991096;28;20038;-78
2022/04/12 05:32:33;;;;;;;33.60;13.35;;;;;;;7.34;100.00;100700.88;4977228;28;20030;-78
2022/04/12 05:34:58;;;;;;;29.30;13.15;;;;;;;7.55;100.00;100693.94;4988100;28;20065;-78
2022/04/12 05:37:23;;;;;;;29.42;13.63;;;;;;;7.77;100.00;100700.63;4987088;28;20047;-78
2022/04/12 05:39:49;;;;;;;35.25;12.30;;;;;;;7.95;100.00;100698.47;4964586;28;20456;-77
2022/04/12 05:42:14;;;;;;;31.98;12.15;;;;;;;8.01;100.00;100702.63;4966835;28;20512;-78
2022/04/12 05:44:40;;;;;;;29.50;12.77;;;;;;;8.01;100.00;100692.56;4990714;28;20053;-78
2022/04/12 05:47:09;;;;;;;35.05;16.10;;;;;;;8.31;100.00;100694.09;4967121;28;20093;-78
2022/04/12 05:49:35;;;;;;;36.92;14.45;;;;;;;8.46;100.00;100683.94;4969436;28;20030;-78
2022/04/12 05:52:00;;;;;;;35.10;16.08;;;;;;;8.69;99.87;100686.84;4996477;28;20492;-79
2022/04/12 05:54:26;;;;;;;38.45;15.63;;;;;;;8.99;97.55;100687.28;4979585;28;20487;-78
2022/04/12 05:56:52;;;;;;;49.42;17.50;;;;;;;9.40;96.26;100690.59;4974117;28;20027;-79
2022/04/12 05:59:17;;;;;;;40.65;16.00;;;;;;;9.72;93.05;100688.09;4980477;28;20035;-78
2022/04/12 06:01:43;;;;;;;39.63;15.45;;;;;;;9.89;91.63;100696.84;4984434;28;20101;-78
2022/04/12 06:04:09;;;;;;;46.78;14.75;;;;;;;9.73;89.88;100695.28;4962974;28;20085;-78
2022/04/12 06:06:35;;;;;;;45.22;15.52;;;;;;;9.57;93.20;100676.50;4992882;28;20038;-77
2022/04/12 06:09:02;;;;;;;42.97;15.63;;;;;;;9.48;93.82;100681.81;4959303;28;20039;-78
2022/04/12 06:11:28;;;;;;;51.67;15.30;;;;;;;9.49;93.06;100680.78;4988217;28;20430;-78
2022/04/12 06:13:54;;;;;;;36.35;15.05;;;;;;;9.48;93.58;100670.88;4979746;28;20033;-77
2022/04/12 06:16:19;;;;;;;48.75;16.55;;;;;;;9.37;94.92;100674.44;4966333;28;20073;-78
2022/04/12 06:18:45;;;;;;;34.03;13.85;;;;;;;9.33;94.00;100675.63;4994200;28;20374;-78
2022/04/12 06:21:11;;;;;;;48.38;15.77;;;;;;;9.35;93.56;100692.81;4991587;28;20031;-78
2022/04/12 06:23:36;;;;;;;36.78;13.88;;;;;;;9.32;93.49;100698.50;4960446;28;20053;-79
2022/04/12 06:26:02;;;;;;;38.50;15.77;;;;;;;9.38;92.98;100698.91;4981235;28;20117;-79
2022/04/12 06:28:29;;;;;;;42.72;14.07;;;;;;;9.51;91.58;100704.31;4959781;28;20030;-78
2022/04/12 06:30:57;;;;;;;39.83;14.02;;;;;;;9.85;89.99;100698.06;4976838;28;20042;-77
2022/04/12 06:33:23;;;;;;;31.15;13.30;;;;;;;10.48;86.13;100691.19;4987362;28;20484;-77
2022/04/12 06:35:48;;;;;;;30.67;12.80;;;;;;;10.94;85.90;100686.53;4963726;28;20030;-77
2022/04/12 06:38:14;;;;;;;38.70;12.25;;;;;;;11.22;82.57;100690.53;4976517;28;20382;-78
2022/04/12 06:40:41;;;;;;;34.92;13.32;;;;;;;11.56;83.23;100695.88;4976354;28;20038;-80
2022/04/12 06:43:06;;;;;;;32.95;11.00;;;;;;;11.83;81.67;100694.50;4985610;28;20047;-79
2022/04/12 06:45:32;;;;;;;29.25;9.65;;;;;;;11.98;80.41;100697.81;4957867;28;20402;-77
2022/04/12 06:47:59;;;;;;;25.13;10.63;;;;;;;11.99;78.63;100702.28;4966606;28;20029;-78
2022/04/12 06:50:28;;;;;;;24.77;9.43;;;;;;;11.95;77.33;100695.31;4968791;28;20052;-79
2022/04/12 06:52:55;;;;;;;17.52;8.25;;;;;;;12.03;78.51;100703.75;4975465;28;20109;-79
2022/04/12 06:55:21;;;;;;;16.42;8.35;;;;;;;11.80;78.74;100724.06;4993108;28;20406;-80
2022/04/12 06:57:47;;;;;;;18.58;7.82;;;;;;;12.48;77.28;100716.28;4953884;28;20046;-78
2022/04/12 07:00:13;;;;;;;20.02;7.60;;;;;;;12.52;78.03;100714.13;4987735;28;20031;-79
2022/04/12 07:02:39;;;;;;;20.95;7.07;;;;;;;12.93;76.26;100715.88;4972300;28;20034;-78
2022/04/12 07:05:06;;;;;;;19.30;7.10;;;;;;;12.67;76.98;100712.75;4970999;28;20038;-78
2022/04/12 07:07:32;;;;;;;14.40;6.72;;;;;;;12.97;76.71;100709.09;4967516;28;20038;-78
2022/04/12 07:09:58;;;;;;;15.30;5.90;;;;;;;13.20;73.89;100695.97;4980118;28;20508;-78
2022/04/12 07:12:24;;;;;;;15.52;6.53;;;;;;;13.30;75.95;100686.84;4967623;28;20050;-78
2022/04/12 07:14:50;;;;;;;16.17;5.95;;;;;;;13.58;73.33;100675.03;4969152;28;20038;-79
2022/04/12 07:17:16;;;;;;;10.57;6.28;;;;;;;13.39;72.42;100675.03;4977598;28;20038;-78
2022/04/12 07:19:41;;;;;;;15.00;5.55;;;;;;;13.66;72.07;100670.66;4976841;28;20053;-78
2022/04/12 07:22:09;;;;;;;16.80;5.70;;;;;;;13.79;72.08;100672.13;4984371;28;20039;-79
2022/04/12 07:24:35;;;;;;;7.97;5.15;;;;;;;14.47;70.04;100667.44;4966046;28;20038;-78
2022/04/12 07:27:00;;;;;;;11.43;5.55;;;;;;;14.30;70.21;100656.19;4995421;28;20026;-77
2022/04/12 07:29:26;;;;;;;11.60;4.75;;;;;;;14.38;68.51;100660.94;4989320;28;20406;-78
2022/04/12 07:31:51;;;;;;;7.20;4.78;;;;;;;14.34;68.47;100659.50;4991777;28;20112;-78
2022/04/12 07:34:16;;;;;;;10.02;4.68;;;;;;;14.62;68.37;100670.56;4988207;28;20397;-78
2022/04/12 07:36:47;;;;;;;8.35;3.80;;;;;;;14.11;68.68;100665.38;4974291;28;20041;-78
2022/04/12 07:39:14;;;;;;;9.07;4.75;;;;;;;14.58;69.26;100661.72;4984238;28;20093;-78
2022/04/12 07:41:40;;;;;;;11.15;4.55;;;;;;;14.47;67.40;100668.28;4985023;28;20085;-77
2022/04/12 07:44:06;;;;;;;14.23;4.18;;;;;;;14.07;69.72;100657.53;4969135;28;20050;-78
2022/04/12 07:46:31;;;;;;;10.13;3.83;;;;;;;14.32;69.47;100661.53;4971935;28;20038;-78
2022/04/12 07:48:57;;;;;;;7.72;3.90;;;;;;;14.57;68.94;100667.38;4961225;28;20031;-79
2022/04/12 07:51:23;;;;;;;9.40;3.90;;;;;;;14.77;68.24;100676.44;4950623;28;20516;-78
2022/04/12 07:53:49;;;;;;;7.10;3.75;;;;;;;14.65;66.78;100684.91;4970753;28;20026;-78
2022/04/12 07:56:14;;;;;;;5.90;3.80;;;;;;;14.75;66.58;100676.59;4982820;28;20051;-78
2022/04/12 07:58:39;;;;;;;7.97;3.45;;;;;;;14.85;66.48;100674.66;4973229;28;20135;-79
2022/04/12 08:01:05;;;;;;;8.30;3.92;;;;;;;15.59;64.30;100678.19;4964571;28;20621;-79
2022/04/12 08:03:31;;;;;;;14.57;3.97;;;;;;;15.59;64.38;100669.91;4964756;28;20047;-79
2022/04/12 08:05:56;;;;;;;6.70;3.90;;;;;;;16.01;63.49;100662.00;4959362;28;20038;-78
2022/04/12 08:08:22;;;;;;;11.65;3.67;;;;;;;16.53;62.40;100667.50;4986120;28;20033;-78
2022/04/12 08:10:47;;;;;;;6.97;3.53;;;;;;;16.60;60.53;100665.78;4957409;28;20037;-78
2022/04/12 08:13:13;;;;;;;9.82;3.60;;;;;;;16.66;60.69;100661.47;4973347;28;20069;-77
2022/04/12 08:15:38;;;;;;;7.53;3.53;;;;;;;17.02;58.39;100653.88;4978295;28;20027;-77
2022/04/12 08:18:05;;;;;;;9.25;3.90;;;;;;;16.22;60.50;100668.00;4978111;28;20113;-77
2022/04/12 08:20:31;;;;;;;12.43;3.40;;;;;;;16.99;58.69;100672.72;4987185;28;20089;-79
2022/04/12 08:22:57;;;;;;;11.45;3.80;;;;;;;16.73;59.83;100676.38;4968391;28;20113;-77
2022/04/12 08:25:23;;;;;;;10.57;3.70;;;;;;;16.72;59.22;100683.81;4960644;28;20451;-78
2022/04/12 08:27:49;;;;;;;8.65;2.92;;;;;;;16.65;58.58;100679.13;4964504;28;20035;-79
2022/04/12 08:30:14;;;;;;;10.85;3.55;;;;;;;16.51;59.62;100681.47;4963395;28;20027;-77
2022/04/12 08:32:40;;;;;;;5.63;3.00;;;;;;;17.60;58.71;100676.97;4988835;28;20030;-78
2022/04/12 08:35:07;;;;;;;6.85;3.22;;;;;;;16.94;58.79;100676.00;4991574;28;20041;-79
2022/04/12 08:37:32;;;;;;;5.47;3.20;;;;;;;16.87;59.52;100670.25;4987934;28;20467;-80
2022/04/12 08:39:58;;;;;;;9.50;3.35;;;;;;;17.31;58.49;100679.34;4974197;28;20122;-78
2022/04/12 08:42:26;;;;;;;6.78;3.10;;;;;;;17.29;58.41;100674.00;4961380;28;20058;-79
2022/04/12 08:44:52;;;;;;;9.50;3.67;;;;;;;17.20;57.96;100666.69;4956447;28;20039;-79
2022/04/12 08:47:20;;;;;;;8.85;3.13;;;;;;;17.45;57.91;100662.94;4979261;28;20034;-79
2022/04/12 08:49:46;;;;;;;6.35;2.83;;;;;;;17.09;57.43;100654.94;4979599;28;20042;-79
2022/04/12 08:52:13;;;;;;;9.73;3.50;;;;;;;17.56;56.64;100656.22;4969756;28;20043;-78
2022/04/12 08:54:40;;;;;;;9.32;3.13;;;;;;;18.04;57.24;100655.50;4961781;28;20562;-78
2022/04/12 08:57:08;;;;;;;10.15;2.65;;;;;;;18.06;54.44;100653.47;4961645;28;20035;-79
2022/04/12 08:59:34;;;;;;;5.05;2.65;;;;;;;18.08;55.51;100655.00;4955967;28;20041;-78
2022/04/12 09:02:00;;;;;;;6.40;3.03;;;;;;;17.83;57.52;100654.13;4965183;28;20390;-79
2022/04/12 09:04:26;;;;;;;9.23;3.03;;;;;;;18.29;56.43;100650.81;4979231;28;20070;-79
2022/04/12 09:06:57;;;;;;;7.20;2.65;;;;;;;18.83;53.11;100648.19;4968673;28;20043;-79
2022/04/12 09:09:25;;;;;;;6.38;2.60;;;;;;;18.31;54.67;100640.41;4962976;28;20166;-79
2022/04/12 09:12:30;;;;;;;5.53;2.45;;;;;;;18.25;54.84;100642.00;4979642;28;20062;-78
2022/04/12 09:14:58;;;;;;;7.85;2.50;;;;;;;18.48;54.23;100649.50;4954677;28;20066;-79
2022/04/12 09:17:35;;;;;;;6.40;2.80;;;;;;;18.58;54.55;100641.88;4970983;28;20035;-79
2022/04/12 09:20:04;;;;;;;7.25;2.80;;;;;;;18.90;53.05;100640.03;4980344;28;20042;-79
2022/04/12 09:22:31;;;;;;;6.85;2.53;;;;;;;19.18;52.84;100645.06;4977009;28;20516;-79
2022/04/12 09:25:02;;;;;;;4.88;2.90;;;;;;;18.96;53.29;100638.44;4976578;28;20113;-79
2022/04/12 09:27:30;;;;;;;4.13;2.63;;;;;;;19.12;53.51;100645.78;4976302;28;20043;-79
2022/04/12 09:30:21;;;;;;;8.98;3.15;;;;;;;18.87;52.55;100644.03;4978138;28;20042;-79
2022/04/12 09:32:49;;;;;;;4.18;2.20;;;;;;;18.85;52.94;100650.81;4957382;28;20030;-78
2022/04/12 09:35:15;;;;;;;5.88;2.42;;;;;;;19.04;54.04;100647.56;4958611;29;20031;-79
2022/04/12 09:37:42;;;;;;;3.92;1.95;;;;;;;19.32;52.56;100647.06;4958780;29;20431;-79
2022/04/12 09:40:13;;;;;;;3.92;2.05;;;;;;;18.89;52.63;100630.00;4969472;28;20094;-78
2022/04/12 09:42:41;;;;;;;5.63;2.22;;;;;;;19.06;51.85;100622.41;4958157;28;20036;-78
2022/04/12 09:45:12;;;;;;;5.45;2.10;;;;;;;18.63;53.95;100608.06;4956727;28;20050;-78
2022/04/12 09:47:39;;;;;;;8.55;2.33;;;;;;;19.27;52.34;100616.22;4975902;28;20364;-78
2022/04/12 09:50:05;;;;;;;7.88;2.65;;;;;;;19.10;53.31;100618.22;4975453;28;20050;-78
2022/04/12 09:52:31;;;;;;;8.90;2.28;;;;;;;19.12;52.22;100613.38;4962487;28;20026;-79
2022/04/12 09:54:58;;;;;;;4.68;2.10;;;;;;;19.08;53.17;100609.22;4966928;28;20410;-78
2022/04/12 09:57:25;;;;;;;6.55;2.35;;;;;;;19.37;52.26;100615.97;4959850;28;20402;-79
2022/04/12 09:59:57;;;;;;;5.50;2.50;;;;;;;19.91;50.77;100621.44;4981157;28;20126;-78
2022/04/12 10:02:24;;;;;;;7.82;2.00;;;;;;;19.26;52.21;100618.09;4968352;28;20503;-78
2022/04/12 10:04:52;;;;;;;4.80;2.30;;;;;;;18.94;53.33;100615.53;4963885;28;20086;-78
2022/04/12 10:07:21;;;;;;;8.65;2.47;;;;;;;19.00;52.06;100626.78;4950638;29;20387;-77
2022/04/12 10:09:51;;;;;;;3.35;2.08;;;;;;;18.87;53.07;100621.84;4970080;28;20039;-78
2022/04/12 10:12:17;;;;;;;3.55;1.92;;;;;;;18.76;52.69;100616.66;4978314;28;20039;-78
2022/04/12 10:14:44;;;;;;;5.60;2.00;;;;;;;19.31;50.92;100608.38;4977861;28;20035;-78
2022/04/12 10:17:11;;;;;;;6.15;1.95;;;;;;;19.22;51.90;100611.22;4949386;29;20058;-78
2022/04/12 10:19:38;;;;;;;4.80;2.08;;;;;;;19.87;51.42;100599.75;4954873;29;20043;-80
2022/04/12 10:22:03;;;;;;;5.00;1.67;;;;;;;19.82;50.51;100605.88;4962912;29;20045;-81
2022/04/12 10:24:30;;;;;;;7.00;2.33;;;;;;;19.38;51.09;100590.78;4959447;29;20112;-79
2022/04/12 10:26:56;;;;;;;9.15;1.92;;;;;;;19.75;50.69;100594.66;4963528;28;20039;-79
2022/04/12 10:29:22;;;;;;;6.45;1.90;;;;;;;19.85;49.28;100593.53;4962736;28;20035;-78
2022/04/12 10:31:56;;;;;;;6.35;1.77;;;;;;;19.82;50.40;100594.75;4971730;28;20126;-79
2022/04/12 10:34:22;;;;;;;4.70;1.92;;;;;;;20.35;47.44;100589.16;4947126;29;20098;-78
2022/04/12 10:37:10;;;;;;;7.38;2.10;;;;;;;20.06;48.99;100582.53;4967001;28;20026;-77
2022/04/12 10:39:44;;;;;;;7.05;1.90;;;;;;;19.70;49.20;100588.78;4958890;28;20546;-78
2022/04/12 10:42:14;;;;;;;6.82;1.95;;;;;;;19.71;49.91;100587.72;4980785;28;20133;-77
2022/04/12 10:44:52;;;;;;;5.03;1.60;;;;;;;19.86;49.77;100576.69;4970704;28;20054;-76
2022/04/12 10:47:27;;;;;;;5.65;1.77;;;;;;;20.43;46.98;100579.84;4966371;28;20069;-78
2022/04/12 10:49:54;;;;;;;8.13;2.42;;;;;;;19.55;48.65;100572.06;4977588;28;20035;-77
2022/04/12 10:52:19;;;;;;;2.85;1.80;;;;;;;19.83;48.53;100574.28;4957809;28;20047;-78
2022/04/12 10:54:47;;;;;;;12.32;1.70;;;;;;;19.52;49.00;100568.81;4978476;28;20030;-78
2022/04/12 10:57:18;;;;;;;12.43;1.63;;;;;;;19.78;48.14;100562.88;4977991;28;20046;-78
2022/04/12 11:00:13;;;;;;;5.85;1.77;;;;;;;19.83;49.06;100549.25;4975284;28;20039;-78
2022/04/12 11:02:45;;;;;;;5.25;1.40;;;;;;;19.93;49.22;100551.75;4955797;28;20035;-78
2022/04/12 11:05:32;;;;;;;5.00;1.67;;;;;;;20.12;47.85;100562.31;4956673;28;20078;-78
2022/04/12 11:07:59;;;;;;;10.77;1.98;;;;;;;20.55;46.80;100556.06;4964825;28;20102;-78
2022/04/12 11:10:24;;;;;;;12.35;2.10;;;;;;;20.76;47.46;100560.84;4959857;28;20039;-78
2022/04/12 11:13:03;;;;;;;4.75;1.90;;;;;;;20.17;48.39;100557.03;4958090;28;20097;-79
2022/04/12 11:15:32;;;;;;;4.93;1.48;;;;;;;20.41;48.79;100548.59;4952840;28;20069;-77
2022/04/12 11:18:05;;;;;;;8.52;1.85;;;;;;;19.79;49.01;100553.47;4969035;28;20050;-78
2022/04/12 11:20:31;;;;;;;6.78;1.80;;;;;;;19.90;48.45;100541.88;4972761;28;20035;-78
2022/04/12 11:22:59;;;;;;;4.63;2.17;;;;;;;20.38;48.39;100545.16;4976930;28;20027;-77